createdAt,value
2023-01-29T00:00:12.306Z,11.88
2023-01-29T00:02:38.953Z,12.20
2023-01-29T00:05:24.767Z,12.18
2023-01-29T00:07:52.652Z,11.88
2023-01-29T00:10:19.090Z,13.02
2023-01-29T00:12:45.483Z,11.82
2023-01-29T00:15:12.184Z,12.10
2023-01-29T00:17:38.507Z,12.85
2023-01-29T00:20:05.087Z,13.63
2023-01-29T00:22:31.478Z,12.52
2023-01-29T00:24:57.736Z,12.27
2023-01-29T00:27:24.028Z,12.30
2023-01-29T00:30:09.272Z,13.40
2023-01-29T00:32:36.158Z,12.45
2023-01-29T00:35:02.708Z,12.68
2023-01-29T00:37:29.125Z,12.30
2023-01-29T00:39:55.424Z,12.43
2023-01-29T00:42:40.504Z,13.15
2023-01-29T00:45:07.119Z,12.43
2023-01-29T00:47:33.857Z,12.02
2023-01-29T00:50:00.976Z,12.90
2023-01-29T00:52:27.582Z,12.20
2023-01-29T00:54:54.809Z,11.80
2023-01-29T00:57:21.236Z,13.23
2023-01-29T00:59:47.565Z,12.00
2023-01-29T01:02:33.101Z,11.73
2023-01-29T01:04:59.660Z,11.30
2023-01-29T01:07:25.964Z,12.90
2023-01-29T01:10:11.020Z,11.60
2023-01-29T01:12:37.344Z,12.13
2023-01-29T01:15:03.922Z,12.18
2023-01-29T01:17:30.227Z,11.95
2023-01-29T01:19:56.679Z,11.32
2023-01-29T01:22:23.032Z,11.25
2023-01-29T01:24:49.301Z,11.90
2023-01-29T01:27:16.573Z,13.02
2023-01-29T01:29:42.867Z,11.85
2023-01-29T01:32:09.199Z,12.10
2023-01-29T01:34:35.902Z,13.52
2023-01-29T01:37:02.205Z,13.02
2023-01-29T01:39:28.565Z,13.10
2023-01-29T01:41:55.060Z,13.15
2023-01-29T01:44:40.134Z,12.48
2023-01-29T01:47:06.433Z,13.07
2023-01-29T01:49:32.742Z,12.35
2023-01-29T01:52:01.046Z,12.30
2023-01-29T01:54:29.240Z,13.18
2023-01-29T01:57:04.911Z,13.75
2023-01-29T01:59:32.713Z,12.40
2023-01-29T02:01:59.098Z,12.65
2023-01-29T02:04:45.291Z,12.52
2023-01-29T02:07:32.746Z,12.48
2023-01-29T02:10:06.267Z,11.90
2023-01-29T02:12:32.989Z,12.15
2023-01-29T02:14:59.758Z,13.00
2023-01-29T02:17:26.200Z,12.10
2023-01-29T02:19:55.548Z,12.82
2023-01-29T02:22:29.254Z,12.35
2023-01-29T02:24:59.767Z,12.32
2023-01-29T02:27:32.095Z,12.25
2023-01-29T02:30:04.154Z,12.20
2023-01-29T02:32:35.151Z,12.40
2023-01-29T02:35:20.209Z,12.15
2023-01-29T02:37:57.821Z,12.52
2023-01-29T02:40:36.241Z,11.77
2023-01-29T02:43:14.420Z,12.07
2023-01-29T02:45:46.702Z,12.10
2023-01-29T02:48:17.231Z,12.60
2023-01-29T02:50:46.495Z,13.13
2023-01-29T02:53:19.040Z,12.30
2023-01-29T02:55:45.631Z,12.27
2023-01-29T02:58:18.017Z,13.10
2023-01-29T03:00:45.604Z,13.57
2023-01-29T03:03:19.915Z,12.25
2023-01-29T03:05:58.461Z,12.13
2023-01-29T03:08:36.932Z,12.88
2023-01-29T03:11:04.819Z,13.93
2023-01-29T03:13:36.415Z,13.77
2023-01-29T03:16:06.393Z,14.05
2023-01-29T03:18:37.837Z,13.30
2023-01-29T03:21:27.586Z,12.95
2023-01-29T03:24:13.878Z,13.35
2023-01-29T03:26:59.136Z,12.73
2023-01-29T03:29:44.549Z,12.60
2023-01-29T03:32:11.879Z,12.80
2023-01-29T03:34:43.816Z,12.95
2023-01-29T03:37:36.639Z,14.13
2023-01-29T03:40:03.847Z,13.30
2023-01-29T03:42:38.350Z,13.13
2023-01-29T03:45:05.284Z,12.70
2023-01-29T03:47:55.123Z,13.77
2023-01-29T03:50:33.406Z,13.45
2023-01-29T03:53:04.692Z,13.77
2023-01-29T03:55:35.406Z,14.10
2023-01-29T03:58:08.948Z,14.35
2023-01-29T04:00:40.742Z,13.57
2023-01-29T04:03:16.244Z,13.60
2023-01-29T04:05:44.885Z,14.50
2023-01-29T04:08:14.469Z,14.32
2023-01-29T04:10:42.080Z,14.85
2023-01-29T04:13:12.690Z,14.38
2023-01-29T04:15:40.977Z,14.38
2023-01-29T04:18:07.302Z,14.00
2023-01-29T04:20:34.930Z,14.50
2023-01-29T04:23:01.348Z,14.13
2023-01-29T04:25:30.419Z,13.75
2023-01-29T04:28:03.097Z,14.98
2023-01-29T04:30:33.494Z,15.07
2023-01-29T04:33:15.027Z,14.65
2023-01-29T04:35:54.468Z,13.75
2023-01-29T04:38:40.439Z,14.55
2023-01-29T04:41:11.621Z,14.27
2023-01-29T04:43:37.890Z,13.90
2023-01-29T04:46:15.567Z,14.50
2023-01-29T04:48:44.867Z,13.95
2023-01-29T04:51:30.089Z,15.50
2023-01-29T04:54:02.564Z,14.50
2023-01-29T04:56:47.903Z,13.82
2023-01-29T04:59:17.168Z,15.25
2023-01-29T05:01:43.723Z,14.45
2023-01-29T05:04:12.038Z,14.27
2023-01-29T05:06:39.173Z,13.75
2023-01-29T05:09:06.120Z,13.75
2023-01-29T05:11:33.085Z,14.13
2023-01-29T05:14:01.934Z,14.80
2023-01-29T05:16:29.656Z,13.93
2023-01-29T05:18:55.986Z,14.90
2023-01-29T05:21:23.348Z,14.45
2023-01-29T05:24:08.544Z,14.35
2023-01-29T05:26:53.751Z,14.25
2023-01-29T05:29:20.682Z,15.38
2023-01-29T05:31:47.224Z,14.20
2023-01-29T05:34:13.631Z,14.13
2023-01-29T05:36:39.906Z,14.05
2023-01-29T05:39:06.272Z,14.20
2023-01-29T05:41:33.511Z,14.20
2023-01-29T05:43:59.812Z,13.27
2023-01-29T05:46:26.178Z,13.50
2023-01-29T05:48:52.928Z,14.00
2023-01-29T05:51:19.284Z,13.80
2023-01-29T05:53:45.651Z,13.98
2023-01-29T05:56:11.976Z,14.60
2023-01-29T05:58:38.412Z,13.43
2023-01-29T06:01:23.824Z,14.43
2023-01-29T06:03:50.408Z,14.43
2023-01-29T06:06:16.921Z,13.05
2023-01-29T06:08:43.326Z,15.07
2023-01-29T06:11:10.696Z,12.98
2023-01-29T06:13:37.174Z,13.80
2023-01-29T06:16:06.950Z,13.60
2023-01-29T06:18:33.326Z,14.05
2023-01-29T06:21:03.949Z,14.50
2023-01-29T06:23:30.750Z,13.80
2023-01-29T06:26:03.303Z,13.85
2023-01-29T06:28:29.815Z,13.48
2023-01-29T06:31:12.044Z,13.77
2023-01-29T06:33:46.710Z,13.30
2023-01-29T06:36:13.183Z,13.68
2023-01-29T06:38:39.508Z,14.23
2023-01-29T06:41:12.789Z,14.25
2023-01-29T06:43:39.285Z,13.40
2023-01-29T06:46:07.369Z,14.35
2023-01-29T06:48:33.697Z,13.35
2023-01-29T06:51:05.428Z,13.70
2023-01-29T06:53:32.872Z,14.13
2023-01-29T06:55:59.827Z,14.20
2023-01-29T06:58:26.348Z,13.20
2023-01-29T07:00:53.012Z,13.23
2023-01-29T07:03:19.422Z,13.43
2023-01-29T07:05:52.839Z,13.70
2023-01-29T07:08:19.459Z,13.05
2023-01-29T07:10:45.832Z,14.23
2023-01-29T07:13:12.186Z,14.57
2023-01-29T07:15:38.532Z,14.52
2023-01-29T07:18:12.288Z,14.70
2023-01-29T07:20:40.153Z,14.15
2023-01-29T07:23:11.191Z,14.32
2023-01-29T07:25:37.757Z,13.68
2023-01-29T07:28:04.105Z,13.77
2023-01-29T07:30:30.748Z,14.00
2023-01-29T07:33:00.953Z,14.60
2023-01-29T07:35:27.377Z,14.48
2023-01-29T07:37:53.739Z,14.68
2023-01-29T07:40:20.042Z,13.98
2023-01-29T07:42:46.832Z,14.77
2023-01-29T07:45:13.586Z,14.13
2023-01-29T07:47:40.041Z,14.07
2023-01-29T07:52:58.720Z,13.95
2023-01-29T07:55:25.195Z,13.32
2023-01-29T07:57:58.923Z,14.57
2023-01-29T08:00:25.402Z,13.05
2023-01-29T08:02:54.547Z,13.73
2023-01-29T08:05:20.919Z,14.23
2023-01-29T08:08:05.706Z,13.55
2023-01-29T08:10:32.343Z,12.43
2023-01-29T08:12:59.703Z,13.35
2023-01-29T08:15:29.179Z,14.35
2023-01-29T08:17:58.062Z,14.73
2023-01-29T08:20:25.038Z,13.45
2023-01-29T08:22:58.253Z,13.90
2023-01-29T08:25:24.943Z,14.30
2023-01-29T08:27:51.483Z,13.77
2023-01-29T08:30:18.666Z,13.40
2023-01-29T08:32:47.565Z,12.30
2023-01-29T08:35:13.959Z,12.45
2023-01-29T08:37:41.891Z,14.52
2023-01-29T08:40:09.835Z,13.23
2023-01-29T08:42:36.576Z,12.88
2023-01-29T08:45:03.014Z,12.90
2023-01-29T08:47:29.744Z,13.68
2023-01-29T08:49:56.391Z,12.23
2023-01-29T08:52:22.953Z,12.68
2023-01-29T08:54:49.410Z,13.25
2023-01-29T08:57:16.172Z,13.00
2023-01-29T08:59:42.787Z,13.40
2023-01-29T09:02:10.661Z,13.20
2023-01-29T09:04:37.014Z,12.98
2023-01-29T09:07:03.311Z,12.48
2023-01-29T09:09:30.208Z,13.20
2023-01-29T09:11:56.497Z,12.77
2023-01-29T09:14:22.891Z,13.52
2023-01-29T09:16:49.669Z,12.68
2023-01-29T09:19:16.044Z,13.55
2023-01-29T09:21:42.507Z,13.60
2023-01-29T09:24:08.903Z,12.75
2023-01-29T09:26:35.672Z,12.15
2023-01-29T09:29:02.105Z,11.93
2023-01-29T09:31:28.502Z,12.82
2023-01-29T09:33:54.927Z,13.50
2023-01-29T09:36:21.362Z,12.38
2023-01-29T09:38:47.725Z,11.85
2023-01-29T09:41:25.152Z,12.10
2023-01-29T09:43:55.181Z,14.35
2023-01-29T09:46:33.411Z,12.73
2023-01-29T09:49:15.187Z,12.90
2023-01-29T09:51:44.763Z,13.07
2023-01-29T09:54:14.783Z,12.45
2023-01-29T09:56:42.177Z,13.33
2023-01-29T09:59:13.019Z,12.68
2023-01-29T10:01:50.794Z,11.80
2023-01-29T10:04:26.897Z,12.25
2023-01-29T10:07:02.429Z,12.40
2023-01-29T10:09:52.024Z,14.10
2023-01-29T10:12:24.365Z,11.95
2023-01-29T10:14:56.908Z,12.65
2023-01-29T10:17:29.370Z,13.02
2023-01-29T10:19:58.960Z,12.95
2023-01-29T10:22:37.087Z,12.02
2023-01-29T10:25:04.848Z,12.65
2023-01-29T10:27:38.613Z,13.18
2023-01-29T10:30:13.962Z,12.90
2023-01-29T10:32:42.827Z,12.85
2023-01-29T10:35:18.822Z,12.40
2023-01-29T10:37:45.711Z,12.43
2023-01-29T10:40:29.403Z,11.73
2023-01-29T10:43:04.145Z,13.43
2023-01-29T10:45:37.237Z,13.20
2023-01-29T10:48:10.770Z,13.38
2023-01-29T10:51:00.118Z,13.70
2023-01-29T10:53:35.155Z,13.32
2023-01-29T10:56:23.714Z,17.55
2023-01-29T10:59:16.596Z,14.35
2023-01-29T11:01:42.982Z,12.15
2023-01-29T11:04:11.809Z,12.23
2023-01-29T11:06:38.245Z,14.30
2023-01-29T11:09:23.143Z,13.55
2023-01-29T11:11:54.486Z,13.35
2023-01-29T11:14:28.593Z,13.85
2023-01-29T11:16:55.431Z,13.48
2023-01-29T11:19:42.033Z,14.18
2023-01-29T11:22:21.884Z,14.52
2023-01-29T11:25:07.376Z,15.27
2023-01-29T11:27:35.505Z,15.25
2023-01-29T11:30:01.818Z,15.80
2023-01-29T11:32:34.038Z,16.35
2023-01-29T11:35:00.320Z,16.02
2023-01-29T11:37:32.682Z,15.55
2023-01-29T11:39:58.957Z,16.17
2023-01-29T11:42:30.752Z,14.55
2023-01-29T11:44:57.072Z,15.73
2023-01-29T11:47:26.865Z,15.25
2023-01-29T11:50:02.765Z,18.45
2023-01-29T11:52:36.745Z,17.08
2023-01-29T11:55:05.335Z,28.38
2023-01-29T11:57:34.327Z,21.33
2023-01-29T12:00:05.763Z,17.52
2023-01-29T12:02:35.776Z,16.55
2023-01-29T12:05:04.672Z,16.03
2023-01-29T12:07:32.355Z,15.35
2023-01-29T12:10:00.319Z,15.48
2023-01-29T12:12:26.647Z,17.58
2023-01-29T12:15:02.850Z,15.75
2023-01-29T12:17:30.955Z,16.75
2023-01-29T12:20:02.081Z,16.48
2023-01-29T12:22:47.600Z,17.02
2023-01-29T12:25:36.553Z,16.58
2023-01-29T12:28:02.982Z,16.27
2023-01-29T12:30:53.252Z,16.80
2023-01-29T12:33:22.806Z,15.02
2023-01-29T12:36:02.633Z,16.35
2023-01-29T12:38:30.481Z,15.55
2023-01-29T12:41:04.104Z,15.82
2023-01-29T12:43:42.427Z,17.17
2023-01-29T12:46:12.983Z,15.27
2023-01-29T12:48:41.751Z,17.33
2023-01-29T12:51:12.439Z,16.95
2023-01-29T12:53:45.409Z,17.52
2023-01-29T12:56:25.538Z,18.30
2023-01-29T12:58:54.283Z,22.93
2023-01-29T13:01:31.359Z,21.42
2023-01-29T13:04:11.925Z,19.35
2023-01-29T13:06:47.402Z,22.98
2023-01-29T13:09:17.064Z,17.58
2023-01-29T13:11:54.943Z,17.05
2023-01-29T13:17:50.955Z,17.15
2023-01-29T13:20:23.470Z,17.27
2023-01-29T13:22:53.756Z,16.08
2023-01-29T13:25:20.403Z,17.67
2023-01-29T13:27:47.796Z,17.52
2023-01-29T13:30:27.983Z,16.30
2023-01-29T13:32:55.866Z,17.30
2023-01-29T13:35:23.261Z,17.05
2023-01-29T13:37:53.988Z,16.98
2023-01-29T13:40:32.200Z,16.98
2023-01-29T13:43:00.458Z,19.20
2023-01-29T13:45:44.284Z,17.58
2023-01-29T13:48:23.847Z,17.00
2023-01-29T13:50:51.231Z,17.08
2023-01-29T13:53:28.837Z,16.38
2023-01-29T13:55:58.227Z,16.08
2023-01-29T13:58:34.923Z,18.00
2023-01-29T14:01:01.879Z,16.30
2023-01-29T14:03:29.978Z,16.52
2023-01-29T14:06:02.350Z,17.15
2023-01-29T14:08:35.301Z,16.92
2023-01-29T14:11:17.014Z,16.48
2023-01-29T14:13:48.128Z,15.80
2023-01-29T14:16:14.535Z,16.05
2023-01-29T14:18:50.199Z,16.83
2023-01-29T14:21:16.546Z,16.13
2023-01-29T14:23:45.196Z,17.40
2023-01-29T14:26:30.716Z,15.52
2023-01-29T14:28:59.540Z,16.08
2023-01-29T14:31:30.406Z,16.63
2023-01-29T14:36:26.355Z,16.15
2023-01-29T14:38:53.762Z,17.00
2023-01-29T14:41:33.342Z,16.63
2023-01-29T14:44:26.417Z,14.35
2023-01-29T14:46:52.874Z,16.10
2023-01-29T14:49:39.456Z,14.10
2023-01-29T14:52:08.214Z,18.25
2023-01-29T14:54:38.455Z,18.80
2023-01-29T14:57:06.628Z,17.50
2023-01-29T14:59:34.968Z,16.45
2023-01-29T15:02:12.333Z,15.65
2023-01-29T15:04:43.003Z,17.10
2023-01-29T15:07:09.303Z,17.85
2023-01-29T15:10:18.868Z,16.80
2023-01-29T15:12:44.191Z,15.73
2023-01-29T15:15:27.445Z,15.00
2023-01-29T15:17:56.775Z,15.00
2023-01-29T15:20:26.088Z,14.52
2023-01-29T15:22:52.489Z,16.33
2023-01-29T15:25:21.527Z,15.10
2023-01-29T15:27:48.296Z,15.05
2023-01-29T15:30:16.391Z,14.65
2023-01-29T15:32:42.913Z,14.95
2023-01-29T15:35:11.235Z,15.27
2023-01-29T15:37:38.042Z,14.73
2023-01-29T15:40:06.964Z,14.43
2023-01-29T15:42:48.399Z,14.77
2023-01-29T15:45:30.988Z,14.55
2023-01-29T15:48:04.159Z,16.77
2023-01-29T15:50:31.177Z,16.00
2023-01-29T15:52:58.802Z,14.48
2023-01-29T15:55:26.211Z,16.65
2023-01-29T15:57:53.208Z,15.85
2023-01-29T16:00:22.106Z,15.35
2023-01-29T16:02:48.561Z,14.57
2023-01-29T16:05:23.140Z,15.18
2023-01-29T16:07:50.795Z,13.45
2023-01-29T16:10:21.081Z,16.35
2023-01-29T16:12:51.388Z,16.08
2023-01-29T16:15:29.975Z,17.00
2023-01-29T16:17:56.628Z,16.02
2023-01-29T16:20:41.956Z,17.85
2023-01-29T16:23:15.687Z,16.85
2023-01-29T16:25:42.202Z,17.63
2023-01-29T16:28:11.121Z,17.30
2023-01-29T16:30:38.612Z,18.48
2023-01-29T16:33:06.001Z,16.42
2023-01-29T16:35:33.190Z,16.42
2023-01-29T16:38:02.747Z,16.70
2023-01-29T16:40:34.024Z,15.73
2023-01-29T16:43:18.780Z,16.55
2023-01-29T16:46:03.733Z,17.75
2023-01-29T16:48:34.559Z,18.27
2023-01-29T16:51:13.532Z,20.85
2023-01-29T16:53:40.156Z,18.10
2023-01-29T16:56:08.135Z,17.13
2023-01-29T16:58:34.870Z,18.13
2023-01-29T17:01:03.654Z,17.65
2023-01-29T17:03:31.434Z,18.52
2023-01-29T17:05:58.235Z,18.13
2023-01-29T17:08:32.503Z,18.38
2023-01-29T17:10:59.432Z,17.60
2023-01-29T17:13:39.710Z,16.10
2023-01-29T17:16:15.475Z,17.35
2023-01-29T17:18:41.918Z,17.83
2023-01-29T17:21:08.258Z,16.92
2023-01-29T17:23:34.609Z,18.23
2023-01-29T17:26:01.006Z,21.30
2023-01-29T17:28:30.742Z,21.20
2023-01-29T17:31:06.171Z,22.88
2023-01-29T17:33:39.037Z,17.95
2023-01-29T17:36:06.130Z,20.65
2023-01-29T18:18:48.086Z,16.33
2023-01-29T18:21:14.516Z,19.17
2023-01-29T18:23:41.081Z,23.20
2023-01-29T18:26:10.215Z,19.23
2023-01-29T18:28:36.690Z,18.15
2023-01-29T18:31:03.769Z,19.48
2023-01-29T18:33:30.327Z,20.77
2023-01-29T18:35:57.039Z,18.95
2023-01-29T18:38:23.791Z,17.17
2023-01-29T18:40:50.547Z,18.60
2023-01-29T18:43:16.972Z,17.48
2023-01-29T18:45:43.670Z,18.35
2023-01-29T18:48:10.036Z,16.65
2023-01-29T18:50:36.469Z,16.67
2023-01-29T18:53:04.249Z,17.83
2023-01-29T18:55:30.601Z,17.75
2023-01-29T18:58:26.937Z,19.52
2023-01-29T19:00:44.064Z,19.08
2023-01-29T19:03:11.003Z,13.15
2023-01-29T19:05:40.369Z,15.70
2023-01-29T19:08:06.744Z,17.27
2023-01-29T19:10:33.594Z,16.77
2023-01-29T19:12:59.901Z,16.45
2023-01-29T19:15:26.277Z,17.63
2023-01-29T19:17:53.031Z,15.40
2023-01-29T19:20:19.573Z,16.65
2023-01-29T19:22:46.107Z,16.55
2023-01-29T19:25:12.757Z,16.45
2023-01-29T19:27:39.189Z,14.60
2023-01-29T19:30:05.985Z,16.35
2023-01-29T19:32:32.640Z,16.92
2023-01-29T19:34:58.978Z,17.08
2023-01-29T19:37:25.514Z,16.45
2023-01-29T19:39:51.867Z,16.63
2023-01-29T19:42:19.327Z,18.15
2023-01-29T19:44:45.722Z,15.05
2023-01-29T19:47:12.060Z,18.10
2023-01-29T19:49:40.357Z,16.48
2023-01-29T19:52:14.735Z,16.65
2023-01-29T19:54:46.226Z,17.95
2023-01-29T19:57:12.648Z,16.50
2023-01-29T19:59:39.035Z,18.90
2023-01-29T20:02:05.448Z,17.30
2023-01-29T20:04:31.811Z,16.98
2023-01-29T20:06:58.398Z,16.98
2023-01-29T20:09:24.707Z,17.20
2023-01-29T20:11:51.012Z,18.75
2023-01-29T20:14:17.350Z,19.10
2023-01-29T20:16:43.741Z,18.63
2023-01-29T20:19:14.398Z,18.65
2023-01-29T20:21:42.233Z,17.65
2023-01-29T20:24:12.141Z,17.85
2023-01-29T20:26:38.971Z,19.27
2023-01-29T20:29:06.384Z,17.70
2023-01-29T20:31:32.935Z,18.58
2023-01-29T20:33:59.305Z,18.15
2023-01-29T20:36:25.668Z,18.08
2023-01-29T20:38:52.214Z,17.52
2023-01-29T20:41:19.206Z,17.48
2023-01-29T20:43:47.180Z,19.25
2023-01-29T20:46:13.961Z,18.00
2023-01-29T20:48:41.943Z,17.77
2023-01-29T20:51:15.933Z,18.58
2023-01-29T20:53:45.948Z,18.60
2023-01-29T20:56:13.292Z,17.23
2023-01-29T20:58:41.027Z,18.83
2023-01-29T21:01:11.035Z,19.45
2023-01-29T21:03:38.320Z,20.77
2023-01-29T21:06:04.887Z,20.27
2023-01-29T21:08:31.283Z,20.65
2023-01-29T21:10:57.611Z,18.00
2023-01-29T21:13:23.982Z,18.35
2023-01-29T21:15:50.403Z,18.75
2023-01-29T21:18:16.773Z,17.65
2023-01-29T21:20:43.088Z,19.98
2023-01-29T21:23:09.518Z,19.63
2023-01-29T21:25:36.071Z,20.02
2023-01-29T21:28:04.303Z,19.35
2023-01-29T21:30:30.682Z,20.33
2023-01-29T21:32:57.001Z,20.00
2023-01-29T21:35:23.442Z,19.25
2023-01-29T21:37:49.765Z,20.52
2023-01-29T21:40:16.796Z,21.30
2023-01-29T21:43:01.983Z,20.00
2023-01-29T21:45:30.854Z,19.50
2023-01-29T21:47:57.143Z,20.08
2023-01-29T21:50:23.588Z,19.20
2023-01-29T21:52:49.913Z,19.40
2023-01-29T21:55:16.357Z,18.92
2023-01-29T21:57:43.024Z,19.70
2023-01-29T22:00:11.027Z,18.45
2023-01-29T22:02:37.372Z,19.45
2023-01-29T22:05:17.745Z,20.15
2023-01-29T22:07:44.898Z,19.52
2023-01-29T22:10:12.140Z,19.00
2023-01-29T22:12:38.968Z,19.90
2023-01-29T22:15:05.846Z,17.83
2023-01-29T22:17:32.261Z,19.65
2023-01-29T22:19:58.601Z,19.58
2023-01-29T22:22:25.006Z,20.10
2023-01-29T22:24:52.504Z,19.40
2023-01-29T22:27:18.838Z,21.55
2023-01-29T22:29:45.122Z,19.40
2023-01-29T22:32:11.751Z,20.80
2023-01-29T22:34:38.078Z,20.25
2023-01-29T22:37:04.414Z,19.58
2023-01-29T22:39:30.760Z,20.88
2023-01-29T22:41:57.059Z,22.50
2023-01-29T22:44:23.387Z,22.83
2023-01-29T22:46:50.396Z,20.35
2023-01-29T22:49:16.832Z,22.48
2023-01-29T22:51:43.533Z,21.92
2023-01-29T22:54:10.742Z,20.73
2023-01-29T22:56:37.050Z,21.45
2023-01-29T22:59:03.393Z,21.40
2023-01-29T23:01:30.971Z,20.67
2023-01-29T23:04:01.615Z,21.15
2023-01-29T23:06:27.939Z,20.30
2023-01-29T23:08:54.211Z,21.15
2023-01-29T23:11:21.325Z,19.83
2023-01-29T23:13:48.922Z,20.88
2023-01-29T23:16:15.936Z,21.25
2023-01-29T23:18:42.789Z,20.08
2023-01-29T23:21:09.463Z,19.23
2023-01-29T23:23:36.531Z,20.83
2023-01-29T23:26:22.640Z,20.63
2023-01-29T23:28:49.829Z,20.33
2023-01-29T23:31:16.436Z,20.65
2023-01-29T23:33:42.821Z,20.73
2023-01-29T23:36:09.260Z,20.27
2023-01-29T23:38:35.582Z,20.15
2023-01-29T23:41:01.918Z,20.10
2023-01-29T23:43:28.673Z,19.20
2023-01-29T23:45:55.336Z,20.08
2023-01-29T23:48:21.858Z,20.52
2023-01-29T23:50:48.356Z,18.42
2023-01-29T23:53:14.919Z,19.63
2023-01-29T23:55:41.421Z,19.83
2023-01-29T23:58:10.219Z,18.23
